Accueil
METAR-TAF:

METAR-TAF

Aéroports :

Aéroport Wolfgang Amadeus Mozart de Salzbourg

Salzbourg, Autriche

latitude: 47-48N, longitude: 013-00E, altitude: 430 m

Observation

Le bulletin a été fait il y a 58 minutes, à 12:50 UTC
Vent 7 kt de direction variable
Température 20°C
Humidité 46%
Pression 1020 hPa
Visibilité 10 km ou plus
Quelques nuages à une hauteur de 6000 ft

METAR: LOWS 011250Z VRB07KT 9999 FEW060 20/08 Q1020 NOSIG

Heure: 15:48 (13:48 UTC)

Prévision

Le bulletin a été fait il y a 2 heures et 33 minutes, à 11:15 UTC
Prévision valable du 01 à 12 UTC au 02 à 12 UTC
Vent 8 kt de nord/nord-est
Visibilité 10 km ou plus
Quelques nuages à une hauteur de 6000 ft
Evoluant progressivement
du 01 à 17 UTC au 01 à 19 UTC
Vent 5 kt de sud/sud-est
Evoluant progressivement
du 02 à 07 UTC au 02 à 09 UTC
Vent 6 kt de nord

TAF: LOWS 011115Z 0112/0212 03008KT 9999 FEW060 TX21/0212Z TN09/0203Z BECMG 0117/0119 15005KT BECMG 0207/0209 01006KT

Observations et prévisions météorologiques de plus de 4000 aéroports (messages METAR et TAF).

Les stations disponibles sont représentées par des disques jaunes et rouges sur la carte.

Passer la souris dessus pour voir le nom de la station.

Cliquer dessus pour voir les observations et prévisions météorologiques.

Pour changer de carte: cliquez sur les boutons verts avec une croix noire pour zoomer, sur le bouton vert avec un tiret pour effectuer un zoom arrière, ou sur les flèches vertes pour les cartes adjacentes.


METAR-TAF: